Time,TemperatureF,DewpointF,PressureIn,WindDirection,WindDirectionDegrees,WindSpeedMPH,WindSpeedGustMPH,Humidity,HourlyPrecipIn,Conditions,Clouds,dailyrainin,SoftwareType,DateUTC
2013-04-21 00:01:00,44.0,42.1,30.27,ENE,74,0.0,0.0,93,0.00,,CLR,0.00,VWS V14.01,2013-04-21 04:01:00,
2013-04-21 00:05:00,44.0,42.4,30.27,ENE,74,0.0,0.0,94,0.00,,CLR,0.00,VWS V14.01,2013-04-21 04:05:00,
2013-04-21 00:10:00,43.9,42.3,30.27,ENE,74,0.0,0.0,94,0.00,,CLR,0.00,VWS V14.01,2013-04-21 04:10:00,
2013-04-21 00:15:00,43.8,42.2,30.27,ENE,74,0.0,0.0,94,0.00,,CLR,0.00,VWS V14.01,2013-04-21 04:15:00,
2013-04-21 00:20:00,43.7,42.1,30.27,ENE,74,0.0,0.0,94,0.00,,CLR,0.00,VWS V14.01,2013-04-21 04:20:00,
2013-04-21 00:25:00,43.6,42.0,30.27,ENE,74,0.0,0.0,94,0.00,,CLR,0.00,VWS V14.01,2013-04-21 04:25:00,
2013-04-21 00:30:00,43.5,41.9,30.27,ENE,74,0.0,0.0,94,0.00,,CLR,0.00,VWS V14.01,2013-04-21 04:30:00,
2013-04-21 00:35:00,43.4,41.8,30.27,ENE,74,0.0,0.0,94,0.00,,CLR,0.00,VWS V14.01,2013-04-21 04:35:00,
2013-04-21 00:40:00,43.3,41.7,30.27,ENE,74,0.0,0.0,94,0.00,,CLR,0.00,VWS V14.01,2013-04-21 04:40:00,
2013-04-21 00:45:00,43.2,41.6,30.27,ENE,74,0.0,0.0,94,0.00,,CLR,0.00,VWS V14.01,2013-04-21 04:45:00,
2013-04-21 00:50:00,43.1,41.5,30.27,ENE,74,0.0,0.0,94,0.00,,CLR,0.00,VWS V14.01,2013-04-21 04:50:00,
2013-04-21 00:55:00,43.0,41.4,30.27,ENE,74,0.0,0.0,94,0.00,,CLR,0.00,VWS V14.01,2013-04-21 04:55:00,
2013-04-21 01:00:00,42.9,41.6,30.27,ENE,74,0.0,0.0,95,0.00,,CLR,0.00,VWS V14.01,2013-04-21 05:00:00,
2013-04-21 01:10:00,42.7,41.1,30.27,ENE,74,0.0,0.0,94,0.00,,CLR,0.00,VWS V14.01,2013-04-21 05:10:00,
2013-04-21 01:15:00,42.5,41.2,30.27,ENE,74,0.0,0.0,95,0.00,,CLR,0.00,VWS V14.01,2013-04-21 05:15:00,
2013-04-21 01:20:00,42.4,41.1,30.27,ENE,74,0.0,0.0,95,0.00,,CLR,0.00,VWS V14.01,2013-04-21 05:20:00,
2013-04-21 01:25:00,42.3,41.0,30.27,ENE,74,0.0,0.0,95,0.00,,CLR,0.00,VWS V14.01,2013-04-21 05:25:00,
2013-04-21 01:30:00,42.2,40.9,30.28,ENE,74,0.0,0.0,95,0.00,,CLR,0.00,VWS V14.01,2013-04-21 05:30:00,
2013-04-21 01:35:00,42.1,40.8,30.27,ENE,74,0.0,0.0,95,0.00,,CLR,0.00,VWS V14.01,2013-04-21 05:35:00,
2013-04-21 01:40:00,42.0,40.7,30.28,ENE,74,0.0,0.0,95,0.00,,CLR,0.00,VWS V14.01,2013-04-21 05:40:00,
2013-04-21 01:45:00,41.9,40.6,30.28,ENE,74,0.0,0.0,95,0.00,,CLR,0.00,VWS V14.01,2013-04-21 05:45:00,
2013-04-21 01:50:00,41.8,40.5,30.28,ENE,74,0.0,0.0,95,0.00,,CLR,0.00,VWS V14.01,2013-04-21 05:50:00,
2013-04-21 01:55:00,41.7,40.4,30.28,ENE,74,0.0,0.0,95,0.00,,CLR,0.00,VWS V14.01,2013-04-21 05:55:00,
2013-04-21 02:00:00,41.6,40.3,30.28,ENE,74,0.0,0.0,95,0.00,,CLR,0.00,VWS V14.01,2013-04-21 06:00:00,
2013-04-21 02:10:00,41.5,40.2,30.29,ENE,74,0.0,0.0,95,0.00,,CLR,0.00,VWS V14.01,2013-04-21 06:10:00,
2013-04-21 02:20:00,41.3,40.0,30.29,ENE,74,0.0,0.0,95,0.00,,CLR,0.00,VWS V14.01,2013-04-21 06:20:00,
2013-04-21 02:25:00,41.1,39.8,30.29,ENE,75,0.0,0.0,95,0.00,,CLR,0.00,VWS V14.01,2013-04-21 06:25:00,
2013-04-21 02:30:00,40.9,39.6,30.29,ENE,75,0.0,0.0,95,0.00,,CLR,0.00,VWS V14.01,2013-04-21 06:30:00,
2013-04-21 02:35:00,40.8,39.5,30.29,ENE,75,0.0,0.0,95,0.00,,CLR,0.00,VWS V14.01,2013-04-21 06:35:00,
2013-04-21 02:40:00,40.6,39.3,30.29,ENE,75,0.0,0.0,95,0.00,,CLR,0.00,VWS V14.01,2013-04-21 06:40:00,
2013-04-21 02:45:00,40.5,39.2,30.29,ENE,75,0.0,0.0,95,0.00,,CLR,0.00,VWS V14.01,2013-04-21 06:45:00,
2013-04-21 02:55:00,40.3,39.0,30.29,ENE,75,0.0,0.0,95,0.00,,CLR,0.00,VWS V14.01,2013-04-21 06:55:00,
2013-04-21 03:05:00,40.4,39.3,30.29,ENE,75,0.0,0.0,96,0.00,,CLR,0.00,VWS V14.01,2013-04-21 07:05:00,
2013-04-21 03:10:00,40.3,39.2,30.30,ENE,75,0.0,0.0,96,0.00,,CLR,0.00,VWS V14.01,2013-04-21 07:10:00,
2013-04-21 03:15:00,40.2,39.2,30.30,ENE,75,0.0,0.0,96,0.00,,CLR,0.00,VWS V14.01,2013-04-21 07:15:00,
2013-04-21 03:20:00,40.1,39.0,30.30,ENE,75,0.0,0.0,96,0.00,,CLR,0.00,VWS V14.01,2013-04-21 07:20:00,
2013-04-21 03:30:00,39.9,38.8,30.30,ENE,75,0.0,0.0,96,0.00,,CLR,0.00,VWS V14.01,2013-04-21 07:30:00,
2013-04-21 03:35:00,40.0,39.0,30.30,ENE,75,0.0,0.0,96,0.00,,CLR,0.00,VWS V14.01,2013-04-21 07:35:00,
2013-04-21 03:45:00,39.7,38.7,30.31,ENE,75,0.0,0.0,96,0.00,,CLR,0.00,VWS V14.01,2013-04-21 07:45:00,
2013-04-21 03:50:00,39.6,38.6,30.31,ENE,75,0.0,0.0,96,0.00,,CLR,0.00,VWS V14.01,2013-04-21 07:50:00,
2013-04-21 04:01:00,39.5,38.5,30.31,ENE,75,0.0,0.0,96,0.00,,CLR,0.00,VWS V14.01,2013-04-21 08:01:00,
2013-04-21 04:10:00,39.4,38.4,30.31,ENE,75,0.0,0.0,96,0.00,,CLR,0.00,VWS V14.01,2013-04-21 08:10:00,
2013-04-21 04:15:00,39.3,38.3,30.31,ENE,75,0.0,0.0,96,0.00,,CLR,0.00,VWS V14.01,2013-04-21 08:15:00,
2013-04-21 04:20:00,39.2,38.2,30.31,ENE,75,0.0,0.0,96,0.00,,CLR,0.00,VWS V14.01,2013-04-21 08:20:00,
2013-04-21 04:25:00,39.1,38.1,30.32,ENE,75,0.0,0.0,96,0.00,,CLR,0.00,VWS V14.01,2013-04-21 08:25:00,
2013-04-21 04:35:00,39.0,38.0,30.32,ENE,75,0.0,0.0,96,0.00,,CLR,0.00,VWS V14.01,2013-04-21 08:35:00,
2013-04-21 04:40:00,38.9,37.9,30.32,ENE,75,0.0,0.0,96,0.00,,CLR,0.00,VWS V14.01,2013-04-21 08:40:00,
2013-04-21 04:45:00,38.8,37.8,30.32,ENE,75,0.0,0.0,96,0.00,,CLR,0.00,VWS V14.01,2013-04-21 08:45:00,
2013-04-21 04:55:00,38.8,37.8,30.33,ENE,75,0.0,0.0,96,0.00,,FEW250,0.00,VWS V14.01,2013-04-21 08:55:00,
2013-04-21 05:00:00,38.7,37.7,30.33,ENE,75,0.0,0.0,96,0.00,,FEW250,0.00,VWS V14.01,2013-04-21 09:00:00,
2013-04-21 05:10:00,39.1,38.1,30.33,ENE,75,0.0,0.0,96,0.00,,FEW250,0.00,VWS V14.01,2013-04-21 09:10:00,
2013-04-21 05:15:00,39.5,38.7,30.34,ENE,74,0.0,0.0,97,0.00,,FEW250,0.00,VWS V14.01,2013-04-21 09:15:00,
2013-04-21 05:20:00,40.1,39.3,30.34,NNE,33,0.0,2.0,97,0.00,,FEW250,0.00,VWS V14.01,2013-04-21 09:20:00,
2013-04-21 05:30:00,41.1,40.3,30.34,NNE,24,0.0,1.0,97,0.00,,FEW250,0.00,VWS V14.01,2013-04-21 09:30:00,
2013-04-21 05:40:00,41.8,40.5,30.35,NNE,16,0.0,2.0,95,0.00,,FEW250,0.00,VWS V14.01,2013-04-21 09:40:00,
2013-04-21 05:45:00,42.4,40.5,30.35,NNE,24,0.0,5.0,93,0.00,,FEW250,0.00,VWS V14.01,2013-04-21 09:45:00,
2013-04-21 05:50:00,42.7,40.5,30.35,NNE,14,2.0,4.0,92,0.00,,FEW250,0.00,VWS V14.01,2013-04-21 09:50:00,
2013-04-21 06:00:00,43.2,40.5,30.36,NNE,23,0.0,3.0,90,0.00,,FEW250,0.00,VWS V14.01,2013-04-21 10:00:00,
2013-04-21 06:10:00,43.3,40.6,30.37,NE,39,1.0,3.0,90,0.00,,FEW250,0.00,VWS V14.01,2013-04-21 10:10:00,
2013-04-21 06:15:00,43.4,40.7,30.37,NNE,16,1.0,4.0,90,0.00,,FEW250,0.00,VWS V14.01,2013-04-21 10:15:00,
2013-04-21 06:20:00,43.6,40.9,30.38,East,79,0.0,5.0,90,0.00,,FEW250,0.00,VWS V14.01,2013-04-21 10:20:00,
2013-04-21 06:25:00,43.5,40.8,30.38,ENE,65,0.0,4.0,90,0.00,,FEW250,0.00,VWS V14.01,2013-04-21 10:25:00,
2013-04-21 06:35:00,43.5,40.8,30.39,ENE,74,1.0,3.0,90,0.00,,FEW250,0.00,VWS V14.01,2013-04-21 10:35:00,
2013-04-21 06:40:00,43.6,40.9,30.39,ENE,60,1.0,3.0,90,0.00,,FEW250,0.00,VWS V14.01,2013-04-21 10:40:00,
2013-04-21 06:45:00,43.6,40.9,30.39,NNE,12,1.0,2.0,90,0.00,,FEW250,0.00,VWS V14.01,2013-04-21 10:45:00,
2013-04-21 06:55:00,43.7,40.7,30.40,ENE,59,0.0,2.0,89,0.00,,FEW250,0.00,VWS V14.01,2013-04-21 10:55:00,
2013-04-21 07:00:00,43.8,40.8,30.40,NNE,19,0.0,3.0,89,0.00,,FEW250,0.00,VWS V14.01,2013-04-21 11:00:00,
2013-04-21 07:10:00,44.0,40.1,30.41,NE,43,0.0,3.0,86,0.00,,FEW250,0.00,VWS V14.01,2013-04-21 11:10:00,
2013-04-21 07:15:00,44.3,40.1,30.41,NNE,13,2.0,5.0,85,0.00,,FEW250,0.00,VWS V14.01,2013-04-21 11:15:00,
2013-04-21 07:20:00,44.6,40.1,30.42,NE,54,0.0,5.0,84,0.00,,FEW250,0.00,VWS V14.01,2013-04-21 11:20:00,
2013-04-21 07:25:00,44.9,39.8,30.42,NW,326,0.0,7.0,82,0.00,,FEW250,0.00,VWS V14.01,2013-04-21 11:25:00,
2013-04-21 07:30:00,45.2,40.0,30.42,NNE,20,0.0,3.0,82,0.00,,FEW250,0.00,VWS V14.01,2013-04-21 11:30:00,
2013-04-21 07:40:00,45.7,39.9,30.42,North,11,2.0,4.0,80,0.00,,FEW250,0.00,VWS V14.01,2013-04-21 11:40:00,
2013-04-21 07:45:00,45.8,40.0,30.42,NE,53,1.0,3.0,80,0.00,,FEW250,0.00,VWS V14.01,2013-04-21 11:45:00,
2013-04-21 07:50:00,46.1,40.3,30.43,NNE,23,4.0,4.0,80,0.00,,FEW250,0.00,VWS V14.01,2013-04-21 11:50:00,
2013-04-21 07:55:00,46.3,39.8,30.43,ENE,63,0.0,4.0,78,0.00,,SCT250,0.00,VWS V14.01,2013-04-21 11:55:00,
2013-04-21 08:00:00,46.8,40.6,30.44,East,88,2.0,3.0,79,0.00,,SCT250,0.00,VWS V14.01,2013-04-21 12:00:00,
2013-04-21 08:10:00,47.1,39.6,30.45,NE,46,2.0,4.0,75,0.00,,SCT250,0.00,VWS V14.01,2013-04-21 12:10:00,
2013-04-21 08:15:00,47.4,39.9,30.45,North,6,1.0,3.0,75,0.00,,SCT250,0.00,VWS V14.01,2013-04-21 12:15:00,
2013-04-21 08:20:00,47.6,39.4,30.45,North,11,6.0,7.0,73,0.00,,SCT250,0.00,VWS V14.01,2013-04-21 12:20:00,
2013-04-21 08:25:00,47.9,39.7,30.44,East,98,1.0,8.0,73,0.00,,SCT250,0.00,VWS V14.01,2013-04-21 12:25:00,
2013-04-21 08:30:00,48.2,39.6,30.44,East,90,2.0,4.0,72,0.00,,SCT250,0.00,VWS V14.01,2013-04-21 12:30:00,
2013-04-21 08:40:00,48.4,39.1,30.45,ENE,72,4.0,5.0,70,0.00,,SCT250,0.00,VWS V14.01,2013-04-21 12:40:00,
2013-04-21 08:45:00,48.7,39.4,30.45,ENE,72,5.0,6.0,70,0.00,,SCT250,0.00,VWS V14.01,2013-04-21 12:45:00,
2013-04-21 08:50:00,49.0,39.3,30.45,East,92,4.0,6.0,69,0.00,,SCT250,0.00,VWS V14.01,2013-04-21 12:50:00,
2013-04-21 08:55:00,49.3,38.8,30.45,NNE,28,2.0,7.0,67,0.00,,BKN250,0.00,VWS V14.01,2013-04-21 12:55:00,
2013-04-21 09:00:00,49.8,39.3,30.46,NW,323,0.0,9.0,67,0.00,,BKN250,0.00,VWS V14.01,2013-04-21 13:00:00,
2013-04-21 09:10:00,50.5,38.8,30.46,NE,37,3.0,5.0,64,0.00,,BKN250,0.00,VWS V14.01,2013-04-21 13:10:00,
2013-04-21 09:15:00,50.4,38.7,30.46,NE,47,2.0,6.0,64,0.00,,BKN250,0.00,VWS V14.01,2013-04-21 13:15:00,
2013-04-21 09:25:00,51.2,39.5,30.46,NE,48,1.0,7.0,64,0.00,,BKN250,0.00,VWS V14.01,2013-04-21 13:25:00,
2013-04-21 09:30:00,51.7,39.5,30.47,NE,34,2.0,6.0,63,0.00,,BKN250,0.00,VWS V14.01,2013-04-21 13:30:00,
2013-04-21 09:35:00,51.9,38.9,30.47,North,1,3.0,8.0,61,0.00,,BKN250,0.00,VWS V14.01,2013-04-21 13:35:00,
2013-04-21 09:40:00,52.1,39.5,30.47,NE,46,2.0,5.0,62,0.00,,BKN250,0.00,VWS V14.01,2013-04-21 13:40:00,
2013-04-21 09:45:00,52.7,40.5,30.47,NE,53,0.0,5.0,63,0.00,,BKN250,0.00,VWS V14.01,2013-04-21 13:45:00,
2013-04-21 09:50:00,53.4,39.5,30.47,NE,46,1.0,4.0,59,0.00,,BKN250,0.00,VWS V14.01,2013-04-21 13:50:00,
2013-04-21 09:55:00,53.7,40.2,30.48,East,82,1.0,1.0,60,0.00,,BKN250,0.00,VWS V14.01,2013-04-21 13:55:00,
2013-04-21 10:01:00,53.9,39.9,30.48,ENE,62,3.0,9.0,59,0.00,,BKN250,0.00,VWS V14.01,2013-04-21 14:01:00,
2013-04-21 10:10:00,53.8,38.9,30.48,ENE,68,2.0,9.0,57,0.00,,BKN250,0.00,VWS V14.01,2013-04-21 14:10:00,
2013-04-21 10:15:00,54.0,38.7,30.48,NE,41,4.0,8.0,56,0.00,,BKN250,0.00,VWS V14.01,2013-04-21 14:15:00,
2013-04-21 10:25:00,54.2,38.9,30.48,NNW,333,0.0,7.0,56,0.00,,BKN250,0.00,VWS V14.01,2013-04-21 14:25:00,
2013-04-21 10:30:00,54.6,38.8,30.48,NNE,23,3.0,10.0,55,0.00,,BKN250,0.00,VWS V14.01,2013-04-21 14:30:00,
2013-04-21 10:35:00,54.9,39.5,30.49,NNE,13,0.0,6.0,56,0.00,,BKN250,0.00,VWS V14.01,2013-04-21 14:35:00,
2013-04-21 10:40:00,55.3,39.0,30.49,North,352,2.0,5.0,54,0.00,,BKN250,0.00,VWS V14.01,2013-04-21 14:40:00,
2013-04-21 10:50:00,55.7,37.9,30.49,NE,51,1.0,6.0,51,0.00,,BKN250,0.00,VWS V14.01,2013-04-21 14:50:00,
2013-04-21 11:00:00,55.6,37.3,30.48,NNE,20,2.0,7.0,50,0.00,,BKN250,0.00,VWS V14.01,2013-04-21 15:00:00,
2013-04-21 11:10:00,56.6,38.2,30.49,NE,46,1.0,5.0,50,0.00,,BKN250,0.00,VWS V14.01,2013-04-21 15:10:00,
2013-04-21 11:15:00,56.5,38.1,30.49,NE,41,1.0,6.0,50,0.00,,BKN250,0.00,VWS V14.01,2013-04-21 15:15:00,
2013-04-21 11:20:00,56.6,38.2,30.49,NE,44,0.0,3.0,50,0.00,,BKN250,0.00,VWS V14.01,2013-04-21 15:20:00,
2013-04-21 11:25:00,56.9,38.5,30.49,NE,51,2.0,4.0,50,0.00,,BKN250,0.00,VWS V14.01,2013-04-21 15:25:00,
2013-04-21 11:35:00,57.4,39.9,30.48,ENE,57,1.0,5.0,52,0.00,,BKN250,0.00,VWS V14.01,2013-04-21 15:35:00,
2013-04-21 11:45:00,58.1,38.0,30.48,ENE,59,2.0,5.0,47,0.00,,BKN250,0.00,VWS V14.01,2013-04-21 15:45:00,
2013-04-21 11:55:00,58.3,38.2,30.48,NNE,23,1.0,7.0,47,0.00,,BKN250,0.00,VWS V14.01,2013-04-21 15:55:00,
2013-04-21 12:00:00,58.1,38.0,30.48,ENE,68,2.0,6.0,47,0.00,,BKN250,0.00,VWS V14.01,2013-04-21 16:00:00,
2013-04-21 12:10:00,58.8,38.1,30.48,NNE,26,5.0,7.0,46,0.00,,BKN250,0.00,VWS V14.01,2013-04-21 16:10:00,
2013-04-21 12:20:00,58.9,39.3,30.48,NE,34,2.0,5.0,48,0.00,,BKN250,0.00,VWS V14.01,2013-04-21 16:20:00,
2013-04-21 12:25:00,58.9,38.2,30.48,NNE,25,2.0,4.0,46,0.00,,BKN250,0.00,VWS V14.01,2013-04-21 16:25:00,
2013-04-21 12:35:00,59.5,38.2,30.47,NW,318,0.0,4.0,45,0.00,,BKN250,0.00,VWS V14.01,2013-04-21 16:35:00,
2013-04-21 12:45:00,60.4,39.5,30.47,NE,56,2.0,5.0,46,0.00,,BKN250,0.00,VWS V14.01,2013-04-21 16:45:00,
2013-04-21 12:50:00,60.4,39.0,30.47,ENE,58,1.0,7.0,45,0.00,,BKN250,0.00,VWS V14.01,2013-04-21 16:50:00,
2013-04-21 12:55:00,59.7,38.9,30.47,NE,34,0.0,6.0,46,0.00,,BKN250,0.00,VWS V14.01,2013-04-21 16:55:00,
2013-04-21 13:00:00,59.3,39.1,30.47,SSW,200,0.0,6.0,47,0.00,,BKN250,0.00,VWS V14.01,2013-04-21 17:00:00,
2013-04-21 13:10:00,59.1,41.0,30.47,NNE,25,2.0,4.0,51,0.00,,BKN250,0.00,VWS V14.01,2013-04-21 17:10:00,
2013-04-21 13:20:00,59.3,39.6,30.46,NNE,33,0.0,3.0,48,0.00,,BKN250,0.00,VWS V14.01,2013-04-21 17:20:00,
2013-04-21 13:25:00,59.1,39.5,30.47,NE,35,3.0,4.0,48,0.00,,BKN250,0.00,VWS V14.01,2013-04-21 17:25:00,
2013-04-21 13:30:00,59.4,40.2,30.46,ENE,75,0.0,3.0,49,0.00,,BKN250,0.00,VWS V14.01,2013-04-21 17:30:00,
2013-04-21 13:40:00,59.8,40.6,30.46,ENE,63,0.0,3.0,49,0.00,,BKN250,0.00,VWS V14.01,2013-04-21 17:40:00,
2013-04-21 13:50:00,60.2,40.5,30.46,ENE,63,1.0,3.0,48,0.00,,BKN250,0.00,VWS V14.01,2013-04-21 17:50:00,
2013-04-21 13:55:00,59.9,39.6,30.46,ENE,69,3.0,7.0,47,0.00,,BKN250,0.00,VWS V14.01,2013-04-21 17:55:00,
2013-04-21 14:00:00,59.5,40.9,30.46,NNE,18,0.0,5.0,50,0.00,,BKN250,0.00,VWS V14.01,2013-04-21 18:00:00,
2013-04-21 14:10:00,61.2,40.8,30.46,North,9,2.0,3.0,47,0.00,,BKN250,0.00,VWS V14.01,2013-04-21 18:10:00,
2013-04-21 14:15:00,60.7,40.4,30.46,NE,56,2.0,5.0,47,0.00,,BKN250,0.00,VWS V14.01,2013-04-21 18:15:00,
2013-04-21 14:20:00,60.6,40.8,30.46,ENE,63,2.0,7.0,48,0.00,,BKN250,0.00,VWS V14.01,2013-04-21 18:20:00,
2013-04-21 14:25:00,60.7,39.8,30.45,ENE,62,0.0,3.0,46,0.00,,BKN250,0.00,VWS V14.01,2013-04-21 18:25:00,
2013-04-21 14:30:00,60.3,41.1,30.45,North,357,4.0,5.0,49,0.00,,BKN250,0.00,VWS V14.01,2013-04-21 18:30:00,
2013-04-21 14:35:00,59.8,41.1,30.45,ENE,69,1.0,6.0,50,0.00,,BKN250,0.00,VWS V14.01,2013-04-21 18:35:00,
2013-04-21 14:40:00,59.4,40.2,30.45,ENE,70,0.0,4.0,49,0.00,,BKN250,0.00,VWS V14.01,2013-04-21 18:40:00,
2013-04-21 14:45:00,59.7,41.6,30.45,ENE,66,0.0,3.0,51,0.00,,BKN250,0.00,VWS V14.01,2013-04-21 18:45:00,
2013-04-21 14:55:00,60.3,40.5,30.44,NE,44,0.0,4.0,48,0.00,,BKN250,0.00,VWS V14.01,2013-04-21 18:55:00,
2013-04-21 15:01:00,60.8,41.5,30.45,NNE,18,3.0,4.0,49,0.00,,BKN250,0.00,VWS V14.01,2013-04-21 19:01:00,
2013-04-21 15:10:00,59.7,39.5,30.45,ENE,72,1.0,6.0,47,0.00,,BKN250,0.00,VWS V14.01,2013-04-21 19:10:00,
2013-04-21 15:15:00,59.5,39.8,30.44,NNE,31,1.0,5.0,48,0.00,,BKN250,0.00,VWS V14.01,2013-04-21 19:15:00,
2013-04-21 15:20:00,59.7,40.0,30.44,NE,41,0.0,3.0,48,0.00,,BKN250,0.00,VWS V14.01,2013-04-21 19:20:00,
2013-04-21 15:26:00,59.5,39.8,30.44,North,353,2.0,4.0,48,0.00,,BKN250,0.00,VWS V14.01,2013-04-21 19:26:00,
2013-04-21 15:35:00,61.0,39.0,30.44,NNE,30,1.0,5.0,44,0.00,,BKN250,0.00,VWS V14.01,2013-04-21 19:35:00,
2013-04-21 15:45:00,60.1,39.8,30.44,ENE,70,0.0,5.0,47,0.00,,BKN250,0.00,VWS V14.01,2013-04-21 19:45:00,
2013-04-21 15:50:00,59.8,39.0,30.43,East,96,0.0,5.0,46,0.00,,BKN250,0.00,VWS V14.01,2013-04-21 19:50:00,
2013-04-21 15:55:00,60.3,38.9,30.43,NE,46,0.0,2.0,45,0.00,,BKN250,0.00,VWS V14.01,2013-04-21 19:55:00,
2013-04-21 16:00:00,60.4,40.6,30.43,East,83,3.0,3.0,48,0.00,,BKN250,0.00,VWS V14.01,2013-04-21 20:00:00,
2013-04-21 16:10:00,60.3,38.9,30.43,NE,34,2.0,4.0,45,0.00,,BKN250,0.00,VWS V14.01,2013-04-21 20:10:00,
2013-04-21 16:15:00,61.0,39.5,30.43,NNE,23,1.0,3.0,45,0.00,,BKN250,0.00,VWS V14.01,2013-04-21 20:15:00,
2013-04-21 16:20:00,60.7,38.7,30.43,NE,49,0.0,5.0,44,0.00,,BKN250,0.00,VWS V14.01,2013-04-21 20:20:00,
2013-04-21 16:25:00,60.5,39.6,30.43,NE,47,1.0,1.0,46,0.00,,BKN250,0.00,VWS V14.01,2013-04-21 20:25:00,
2013-04-21 16:30:00,61.1,39.6,30.42,ENE,59,3.0,8.0,45,0.00,,BKN250,0.00,VWS V14.01,2013-04-21 20:30:00,
2013-04-21 16:35:00,60.8,38.8,30.42,NNE,15,2.0,4.0,44,0.00,,BKN250,0.00,VWS V14.01,2013-04-21 20:35:00,
2013-04-21 16:40:00,60.0,38.0,30.42,NE,39,4.0,7.0,44,0.00,,BKN250,0.00,VWS V14.01,2013-04-21 20:40:00,
2013-04-21 16:45:00,59.5,38.2,30.42,ENE,72,0.0,6.0,45,0.00,,BKN250,0.00,VWS V14.01,2013-04-21 20:45:00,
2013-04-21 16:50:00,60.1,38.7,30.42,ENE,65,1.0,7.0,45,0.00,,BKN250,0.00,VWS V14.01,2013-04-21 20:50:00,
2013-04-21 16:55:00,60.8,39.3,30.42,ENE,76,2.0,7.0,45,0.00,,BKN250,0.00,VWS V14.01,2013-04-21 20:55:00,
2013-04-21 17:00:00,61.0,39.0,30.42,NE,46,1.0,3.0,44,0.00,,BKN250,0.00,VWS V14.01,2013-04-21 21:00:00,
2013-04-21 17:10:00,60.3,38.9,30.42,NNE,23,1.0,5.0,45,0.00,,BKN250,0.00,VWS V14.01,2013-04-21 21:10:00,
2013-04-21 17:15:00,60.4,38.4,30.42,ENE,58,0.0,7.0,44,0.00,,BKN250,0.00,VWS V14.01,2013-04-21 21:15:00,
2013-04-21 17:20:00,60.0,39.2,30.42,East,83,0.0,2.0,46,0.00,,BKN250,0.00,VWS V14.01,2013-04-21 21:20:00,
2013-04-21 17:25:00,60.1,39.3,30.42,ENE,70,2.0,2.0,46,0.00,,BKN250,0.00,VWS V14.01,2013-04-21 21:25:00,
2013-04-21 17:30:00,60.8,39.3,30.42,NNE,13,2.0,3.0,45,0.00,,BKN250,0.00,VWS V14.01,2013-04-21 21:30:00,
2013-04-21 17:35:00,61.0,38.4,30.42,ENE,62,2.0,4.0,43,0.00,,BKN250,0.00,VWS V14.01,2013-04-21 21:35:00,
2013-04-21 17:40:00,60.6,38.0,30.42,NE,44,2.0,4.0,43,0.00,,BKN250,0.00,VWS V14.01,2013-04-21 21:40:00,
2013-04-21 17:45:00,60.4,38.4,30.42,NE,34,0.0,4.0,44,0.00,,BKN250,0.00,VWS V14.01,2013-04-21 21:45:00,
2013-04-21 17:50:00,60.1,38.1,30.42,NE,56,0.0,4.0,44,0.00,,BKN250,0.00,VWS V14.01,2013-04-21 21:50:00,
2013-04-21 17:55:00,60.5,37.9,30.42,North,359,0.0,4.0,43,0.00,,BKN250,0.00,VWS V14.01,2013-04-21 21:55:00,
2013-04-21 18:01:00,60.7,38.7,30.42,East,80,0.0,3.0,44,0.00,,BKN250,0.00,VWS V14.01,2013-04-21 22:01:00,
2013-04-21 18:10:00,60.9,37.7,30.42,ENE,77,5.0,5.0,42,0.00,,BKN250,0.00,VWS V14.01,2013-04-21 22:10:00,
2013-04-21 18:16:00,60.2,39.9,30.42,NNE,33,1.0,5.0,47,0.00,,BKN250,0.00,VWS V14.01,2013-04-21 22:16:00,
2013-04-21 18:25:00,59.0,39.9,30.42,ENE,75,0.0,1.0,49,0.00,,BKN250,0.00,VWS V14.01,2013-04-21 22:25:00,
2013-04-21 18:30:00,58.6,39.0,30.42,ENE,74,0.0,1.0,48,0.00,,BKN250,0.00,VWS V14.01,2013-04-21 22:30:00,
2013-04-21 18:35:00,58.7,38.5,30.42,NNE,19,1.0,3.0,47,0.00,,BKN250,0.00,VWS V14.01,2013-04-21 22:35:00,
2013-04-21 18:45:00,59.3,38.5,30.42,ENE,75,0.0,3.0,46,0.00,,BKN250,0.00,VWS V14.01,2013-04-21 22:45:00,
2013-04-21 18:50:00,59.5,38.2,30.42,NNE,25,0.0,3.0,45,0.00,,BKN250,0.00,VWS V14.01,2013-04-21 22:50:00,
2013-04-21 18:55:00,59.5,39.3,30.42,ENE,69,1.0,1.0,47,0.00,,BKN250,0.00,VWS V14.01,2013-04-21 22:55:00,
2013-04-21 19:00:00,59.3,38.5,30.42,NE,49,0.0,2.0,46,0.00,,BKN250,0.00,VWS V14.01,2013-04-21 23:00:00,
2013-04-21 19:10:00,58.8,38.6,30.42,ENE,72,0.0,4.0,47,0.00,,BKN250,0.00,VWS V14.01,2013-04-21 23:10:00,
2013-04-21 19:15:00,58.4,39.3,30.42,ENE,65,0.0,3.0,49,0.00,,BKN250,0.00,VWS V14.01,2013-04-21 23:15:00,
2013-04-21 19:20:00,58.0,39.0,30.42,NE,48,0.0,4.0,49,0.00,,BKN250,0.00,VWS V14.01,2013-04-21 23:20:00,
2013-04-21 19:25:00,57.6,38.6,30.42,NE,49,0.0,5.0,49,0.00,,BKN250,0.00,VWS V14.01,2013-04-21 23:25:00,
2013-04-21 19:30:00,57.1,38.1,30.43,East,79,0.0,2.0,49,0.00,,BKN250,0.00,VWS V14.01,2013-04-21 23:30:00,
2013-04-21 19:35:00,56.7,38.8,30.43,ENE,75,0.0,1.0,51,0.00,,BKN250,0.00,VWS V14.01,2013-04-21 23:35:00,
2013-04-21 19:40:00,56.4,38.5,30.43,NNW,340,0.0,2.0,51,0.00,,BKN250,0.00,VWS V14.01,2013-04-21 23:40:00,
2013-04-21 19:45:00,56.2,38.8,30.43,NNE,23,0.0,2.0,52,0.00,,BKN250,0.00,VWS V14.01,2013-04-21 23:45:00,
2013-04-21 19:50:00,55.8,39.4,30.43,ENE,72,0.0,2.0,54,0.00,,BKN250,0.00,VWS V14.01,2013-04-21 23:50:00,
2013-04-21 19:55:00,55.5,39.1,30.43,ENE,65,0.0,2.0,54,0.00,,BKN250,0.00,VWS V14.01,2013-04-21 23:55:00,
2013-04-21 20:00:00,55.2,38.9,30.43,NNE,29,1.0,1.0,54,0.00,,SCT250,0.00,VWS V14.01,2013-04-22 00:00:00,
2013-04-21 20:10:00,54.5,38.7,30.44,NE,37,0.0,0.0,55,0.00,,SCT250,0.00,VWS V14.01,2013-04-22 00:10:00,
2013-04-21 20:15:00,54.3,39.0,30.44,NE,37,0.0,1.0,56,0.00,,SCT250,0.00,VWS V14.01,2013-04-22 00:15:00,
2013-04-21 20:20:00,54.0,39.1,30.44,NE,42,0.0,1.0,57,0.00,,SCT250,0.00,VWS V14.01,2013-04-22 00:20:00,
2013-04-21 20:25:00,53.6,39.2,30.45,NE,47,0.0,1.0,58,0.00,,SCT250,0.00,VWS V14.01,2013-04-22 00:25:00,
2013-04-21 20:30:00,53.3,38.9,30.45,NE,47,0.0,0.0,58,0.00,,SCT250,0.00,VWS V14.01,2013-04-22 00:30:00,
2013-04-21 20:35:00,53.0,39.1,30.45,NE,47,0.0,0.0,59,0.00,,SCT250,0.00,VWS V14.01,2013-04-22 00:35:00,
2013-04-21 20:40:00,52.7,39.2,30.45,NE,47,0.0,0.0,60,0.00,,SCT250,0.00,VWS V14.01,2013-04-22 00:40:00,
2013-04-21 20:45:00,52.4,39.4,30.45,NE,48,0.0,1.0,61,0.00,,SCT250,0.00,VWS V14.01,2013-04-22 00:45:00,
2013-04-21 20:50:00,52.1,40.3,30.46,NE,47,0.0,0.0,64,0.00,,SCT250,0.00,VWS V14.01,2013-04-22 00:50:00,
2013-04-21 20:55:00,51.8,40.0,30.46,NE,47,0.0,0.0,64,0.00,,SCT250,0.00,VWS V14.01,2013-04-22 00:55:00,
2013-04-21 21:00:00,51.4,40.0,30.46,NE,47,0.0,0.0,65,0.00,,SCT250,0.00,VWS V14.01,2013-04-22 01:00:00,
2013-04-21 21:10:00,50.9,39.6,30.47,NE,47,0.0,1.0,65,0.00,,SCT250,0.00,VWS V14.01,2013-04-22 01:10:00,
2013-04-21 21:15:00,50.8,39.9,30.47,NE,47,0.0,1.0,66,0.00,,SCT250,0.00,VWS V14.01,2013-04-22 01:15:00,
2013-04-21 21:20:00,50.6,40.1,30.48,NE,47,0.0,1.0,67,0.00,,SCT250,0.00,VWS V14.01,2013-04-22 01:20:00,
2013-04-21 21:25:00,50.4,39.5,30.48,NE,47,0.0,0.0,66,0.00,,SCT250,0.00,VWS V14.01,2013-04-22 01:25:00,
2013-04-21 21:30:00,50.2,39.3,30.48,NE,48,0.0,0.0,66,0.00,,SCT250,0.00,VWS V14.01,2013-04-22 01:30:00,
2013-04-21 21:35:00,50.0,39.5,30.48,NE,47,0.0,0.0,67,0.00,,SCT250,0.00,VWS V14.01,2013-04-22 01:35:00,
2013-04-21 21:40:00,49.9,39.8,30.48,ENE,63,0.0,1.0,68,0.00,,SCT250,0.00,VWS V14.01,2013-04-22 01:40:00,
2013-04-21 21:45:00,49.7,40.0,30.49,ENE,64,0.0,1.0,69,0.00,,SCT250,0.00,VWS V14.01,2013-04-22 01:45:00,
2013-04-21 21:50:00,49.6,39.9,30.48,ENE,64,0.0,1.0,69,0.00,,SCT250,0.00,VWS V14.01,2013-04-22 01:50:00,
2013-04-21 21:55:00,49.6,39.5,30.48,NNE,25,0.0,1.0,68,0.00,,SCT250,0.00,VWS V14.01,2013-04-22 01:55:00,
2013-04-21 22:00:00,49.7,39.2,30.49,NNE,25,0.0,2.0,67,0.00,,FEW060,0.00,VWS V14.01,2013-04-22 02:00:00,
2013-04-21 22:10:00,49.8,38.5,30.49,NE,49,0.0,1.0,65,0.00,,FEW060,0.00,VWS V14.01,2013-04-22 02:10:00,
2013-04-21 22:15:00,49.7,38.4,30.49,ENE,72,0.0,1.0,65,0.00,,FEW060,0.00,VWS V14.01,2013-04-22 02:15:00,
2013-04-21 22:20:00,49.6,37.9,30.48,North,360,2.0,2.0,64,0.00,,FEW060,0.00,VWS V14.01,2013-04-22 02:20:00,
2013-04-21 22:25:00,49.5,38.2,30.49,East,80,0.0,2.0,65,0.00,,FEW060,0.00,VWS V14.01,2013-04-22 02:25:00,
2013-04-21 22:30:00,49.3,38.4,30.49,NNE,28,2.0,2.0,66,0.00,,FEW060,0.00,VWS V14.01,2013-04-22 02:30:00,
2013-04-21 22:35:00,49.2,38.0,30.48,NE,54,0.0,2.0,65,0.00,,FEW060,0.00,VWS V14.01,2013-04-22 02:35:00,
2013-04-21 22:45:00,49.0,38.2,30.49,North,11,4.0,6.0,66,0.00,,FEW060,0.00,VWS V14.01,2013-04-22 02:45:00,
2013-04-21 22:50:00,48.9,37.7,30.48,ENE,72,0.0,4.0,65,0.00,,FEW060,0.00,VWS V14.01,2013-04-22 02:50:00,
2013-04-21 22:55:00,48.7,37.9,30.48,NE,49,0.0,2.0,66,0.00,,FEW060,0.00,VWS V14.01,2013-04-22 02:55:00,
2013-04-21 23:00:00,48.6,37.4,30.48,ENE,75,0.0,2.0,65,0.00,,FEW060,0.00,VWS V14.01,2013-04-22 03:00:00,
2013-04-21 23:10:00,48.2,37.4,30.48,NNE,30,1.0,2.0,66,0.00,,FEW060,0.00,VWS V14.01,2013-04-22 03:10:00,
2013-04-21 23:15:00,48.1,37.7,30.48,North,8,3.0,3.0,67,0.00,,FEW060,0.00,VWS V14.01,2013-04-22 03:15:00,
2013-04-21 23:20:00,47.9,37.9,30.47,NNE,21,0.0,3.0,68,0.00,,FEW060,0.00,VWS V14.01,2013-04-22 03:20:00,
2013-04-21 23:25:00,47.7,37.7,30.47,ENE,72,0.0,3.0,68,0.00,,FEW060,0.00,VWS V14.01,2013-04-22 03:25:00,
2013-04-21 23:30:00,47.5,37.8,30.47,ENE,72,1.0,2.0,69,0.00,,FEW060,0.00,VWS V14.01,2013-04-22 03:30:00,
2013-04-21 23:35:00,47.4,37.4,30.47,NNE,15,0.0,1.0,68,0.00,,FEW060,0.00,VWS V14.01,2013-04-22 03:35:00,
2013-04-21 23:40:00,47.2,37.6,30.47,NE,49,0.0,3.0,69,0.00,,FEW060,0.00,VWS V14.01,2013-04-22 03:40:00,
2013-04-21 23:45:00,46.9,36.9,30.47,ENE,70,0.0,2.0,68,0.00,,FEW060,0.00,VWS V14.01,2013-04-22 03:45:00,
2013-04-21 23:50:00,46.8,37.5,30.48,NE,40,0.0,1.0,70,0.00,,FEW060,0.00,VWS V14.01,2013-04-22 03:50:00,
2013-04-21 23:55:00,46.6,36.6,30.48,ENE,69,0.0,2.0,68,0.00,,FEW060,0.00,VWS V14.01,2013-04-22 03:55:00,